Time,TemperatureF,DewpointF,PressureIn,WindDirection,WindDirectionDegrees,WindSpeedMPH,WindSpeedGustMPH,Humidity,HourlyPrecipIn,Conditions,Clouds,dailyrainin,SoftwareType,DateUTC
2013-09-03 00:03:00,58.6,52.8,29.94,ESE,112,0.0,-999.0,81,-99.99,,,0.00,Acu-Link.com,2013-09-03 05:03:00,
2013-09-03 00:19:00,59.2,53.4,29.93,NE,45,0.0,-999.0,81,-99.99,,,0.00,Acu-Link.com,2013-09-03 05:19:00,
2013-09-03 00:34:00,58.3,52.8,29.93,West,270,0.0,-999.0,82,-99.99,,,0.00,Acu-Link.com,2013-09-03 05:34:00,
2013-09-03 00:49:00,58.1,52.6,29.93,ENE,67,0.0,-999.0,82,-99.99,,,0.00,Acu-Link.com,2013-09-03 05:49:00,
2013-09-03 01:04:00,58.3,52.8,29.94,East,90,1.7,-999.0,82,-99.99,,,0.00,Acu-Link.com,2013-09-03 06:04:00,
2013-09-03 01:20:00,57.9,52.4,29.94,ENE,67,1.7,-999.0,82,-99.99,,,0.00,Acu-Link.com,2013-09-03 06:20:00,
2013-09-03 01:35:00,57.9,52.4,29.94,ENE,67,1.7,-999.0,82,-99.99,,,0.00,Acu-Link.com,2013-09-03 06:35:00,
2013-09-03 01:50:00,57.9,52.4,29.94,East,90,1.7,-999.0,82,-99.99,,,0.00,Acu-Link.com,2013-09-03 06:50:00,
2013-09-03 02:05:00,57.9,52.4,29.94,ENE,67,0.0,-999.0,82,-99.99,,,0.00,Acu-Link.com,2013-09-03 07:05:00,
2013-09-03 02:21:00,57.9,52.4,29.94,ESE,112,2.2,-999.0,82,-99.99,,,0.00,Acu-Link.com,2013-09-03 07:21:00,
2013-09-03 02:36:00,57.9,52.4,29.95,ESE,112,0.0,-999.0,82,-99.99,,,0.00,Acu-Link.com,2013-09-03 07:36:00,
2013-09-03 02:51:00,57.9,52.4,29.95,SE,135,0.0,-999.0,82,-99.99,,,0.00,Acu-Link.com,2013-09-03 07:51:00,
2013-09-03 03:07:00,57.9,52.4,29.95,ESE,112,1.7,-999.0,82,-99.99,,,0.00,Acu-Link.com,2013-09-03 08:07:00,
2013-09-03 03:22:00,57.9,52.4,29.96,ESE,112,1.7,-999.0,82,-99.99,,,0.00,Acu-Link.com,2013-09-03 08:22:00,
2013-09-03 03:37:00,57.9,52.4,29.95,ESE,112,1.7,-999.0,82,-99.99,,,0.00,Acu-Link.com,2013-09-03 08:37:00,
2013-09-03 03:52:00,57.9,52.4,29.95,NNE,22,1.1,-999.0,82,-99.99,,,0.00,Acu-Link.com,2013-09-03 08:52:00,
2013-09-03 04:07:00,57.9,52.4,29.96,ENE,67,0.0,-999.0,82,-99.99,,,0.00,Acu-Link.com,2013-09-03 09:07:00,
2013-09-03 04:22:00,57.9,52.4,29.96,ENE,67,2.2,-999.0,82,-99.99,,,0.00,Acu-Link.com,2013-09-03 09:22:00,
2013-09-03 04:37:00,57.9,52.4,29.96,ESE,112,1.7,-999.0,82,-99.99,,,0.00,Acu-Link.com,2013-09-03 09:37:00,
2013-09-03 04:53:00,57.9,52.4,29.97,ESE,112,0.0,-999.0,82,-99.99,,,0.00,Acu-Link.com,2013-09-03 09:53:00,
2013-09-03 05:08:00,57.9,52.4,29.96,East,90,1.1,-999.0,82,-99.99,,,0.00,Acu-Link.com,2013-09-03 10:08:00,
2013-09-03 05:23:00,57.9,52.4,29.97,East,90,0.0,-999.0,82,-99.99,,,0.00,Acu-Link.com,2013-09-03 10:23:00,
2013-09-03 05:38:00,57.9,52.4,29.97,ESE,112,1.1,-999.0,82,-99.99,,,0.00,Acu-Link.com,2013-09-03 10:38:00,
2013-09-03 05:54:00,57.9,52.4,29.97,ENE,67,0.0,-999.0,82,-99.99,,,0.00,Acu-Link.com,2013-09-03 10:54:00,
2013-09-03 06:09:00,57.9,52.4,29.97,East,90,1.7,-999.0,82,-99.99,,,0.00,Acu-Link.com,2013-09-03 11:09:00,
2013-09-03 06:24:00,57.9,52.4,29.98,ESE,112,1.1,-999.0,82,-99.99,,,0.00,Acu-Link.com,2013-09-03 11:24:00,
2013-09-03 06:40:00,-40.0,-99.9,29.98,SSE,157,3.2,-999.0,0,-99.99,,,0.00,Acu-Link.com,2013-09-03 11:40:00,
2013-09-03 06:55:00,-40.0,-99.9,29.97,ESE,112,3.2,-999.0,0,-99.99,,,0.00,Acu-Link.com,2013-09-03 11:55:00,
2013-09-03 07:10:00,-40.0,-99.9,29.97,ESE,112,0.0,-999.0,0,-99.99,,,0.00,Acu-Link.com,2013-09-03 12:10:00,
2013-09-03 07:26:00,-40.0,-99.9,29.98,ESE,112,2.7,-999.0,0,-99.99,,,0.00,Acu-Link.com,2013-09-03 12:26:00,
2013-09-03 07:41:00,-40.0,-99.9,29.98,ESE,112,3.7,-999.0,0,-99.99,,,0.00,Acu-Link.com,2013-09-03 12:41:00,
2013-09-03 07:56:00,-40.0,-99.9,29.98,SE,135,4.2,-999.0,0,-99.99,,,0.00,Acu-Link.com,2013-09-03 12:56:00,
2013-09-03 08:12:00,-40.0,-99.9,29.97,SE,135,3.7,-999.0,0,-99.99,,,0.00,Acu-Link.com,2013-09-03 13:12:00,
2013-09-03 08:27:00,-40.0,-99.9,29.97,SE,135,4.2,-999.0,0,-99.99,,,0.00,Acu-Link.com,2013-09-03 13:27:00,
2013-09-03 08:42:00,-40.0,-99.9,29.98,ESE,112,5.8,-999.0,0,-99.99,,,0.00,Acu-Link.com,2013-09-03 13:42:00,
2013-09-03 08:57:00,-40.0,-99.9,29.98,ESE,112,3.7,-999.0,0,-99.99,,,0.00,Acu-Link.com,2013-09-03 13:57:00,
2013-09-03 09:12:00,-40.0,-99.9,29.98,SSE,157,4.7,-999.0,0,-99.99,,,0.00,Acu-Link.com,2013-09-03 14:12:00,
2013-09-03 09:28:00,-40.0,-99.9,29.98,ESE,112,6.8,-999.0,0,-99.99,,,0.00,Acu-Link.com,2013-09-03 14:28:00,
2013-09-03 09:43:00,-40.0,-99.9,29.98,South,180,2.7,-999.0,0,-99.99,,,0.00,Acu-Link.com,2013-09-03 14:43:00,
2013-09-03 09:58:00,-40.0,-99.9,29.98,SSE,157,6.3,-999.0,0,-99.99,,,0.00,Acu-Link.com,2013-09-03 14:58:00,
2013-09-03 10:13:00,-40.0,-99.9,29.97,SE,135,6.8,-999.0,0,-99.99,,,0.00,Acu-Link.com,2013-09-03 15:13:00,
2013-09-03 10:28:00,-40.0,-99.9,29.97,SE,135,7.3,-999.0,0,-99.99,,,0.00,Acu-Link.com,2013-09-03 15:28:00,
2013-09-03 10:43:00,72.3,59.0,29.97,SSE,157,10.9,-999.0,63,-99.99,,,0.00,Acu-Link.com,2013-09-03 15:43:00,
2013-09-03 10:58:00,73.6,59.3,29.96,SSE,157,7.3,-999.0,61,-99.99,,,0.00,Acu-Link.com,2013-09-03 15:58:00,
2013-09-03 11:13:00,75.4,60.5,29.97,SSE,157,6.8,-999.0,60,-99.99,,,0.00,Acu-Link.com,2013-09-03 16:13:00,
2013-09-03 11:28:00,75.7,59.9,29.96,SSW,202,8.3,-999.0,58,-99.99,,,0.00,Acu-Link.com,2013-09-03 16:28:00,
2013-09-03 11:44:00,76.3,60.9,29.96,South,180,6.3,-999.0,59,-99.99,,,0.00,Acu-Link.com,2013-09-03 16:44:00,
2013-09-03 11:59:00,77.4,61.9,29.95,SE,135,11.9,-999.0,59,-99.99,,,0.00,Acu-Link.com,2013-09-03 16:59:00,
2013-09-03 12:14:00,77.5,62.0,29.95,ESE,112,9.9,-999.0,59,-99.99,,,0.00,Acu-Link.com,2013-09-03 17:14:00,
2013-09-03 12:29:00,78.6,62.6,29.93,South,180,14.0,-999.0,58,-99.99,,,0.00,Acu-Link.com,2013-09-03 17:29:00,
2013-09-03 12:44:00,78.8,62.8,29.94,ESE,112,5.8,-999.0,58,-99.99,,,0.00,Acu-Link.com,2013-09-03 17:44:00,
2013-09-03 13:00:00,80.1,64.0,29.93,South,180,6.8,-999.0,58,-99.99,,,0.00,Acu-Link.com,2013-09-03 18:00:00,
2013-09-03 13:15:00,80.4,64.7,29.92,ENE,67,10.9,-999.0,59,-99.99,,,0.00,Acu-Link.com,2013-09-03 18:15:00,
2013-09-03 13:30:00,81.1,64.9,29.92,SSE,157,3.7,-999.0,58,-99.99,,,0.00,Acu-Link.com,2013-09-03 18:30:00,
2013-09-03 13:45:00,81.1,64.4,29.92,SSE,157,5.3,-999.0,57,-99.99,,,0.00,Acu-Link.com,2013-09-03 18:45:00,
2013-09-03 14:00:00,81.9,64.6,29.92,SE,135,9.9,-999.0,56,-99.99,,,0.00,Acu-Link.com,2013-09-03 19:00:00,
2013-09-03 14:15:00,81.1,64.9,29.91,SSW,202,8.3,-999.0,58,-99.99,,,0.00,Acu-Link.com,2013-09-03 19:15:00,
2013-09-03 14:30:00,81.9,65.1,29.91,SSE,157,10.9,-999.0,57,-99.99,,,0.00,Acu-Link.com,2013-09-03 19:30:00,
2013-09-03 14:45:00,81.3,65.1,29.90,SSE,157,6.8,-999.0,58,-99.99,,,0.00,Acu-Link.com,2013-09-03 19:45:00,
2013-09-03 15:01:00,81.7,65.0,29.90,SSE,157,11.4,-999.0,57,-99.99,,,0.00,Acu-Link.com,2013-09-03 20:01:00,
2013-09-03 15:16:00,81.0,65.3,29.89,SSE,157,9.4,-999.0,59,-99.99,,,0.00,Acu-Link.com,2013-09-03 20:16:00,
2013-09-03 15:31:00,80.4,65.7,29.90,South,180,10.9,-999.0,61,-99.99,,,0.00,Acu-Link.com,2013-09-03 20:31:00,
2013-09-03 15:46:00,81.1,65.9,29.89,SSE,157,11.4,-999.0,60,-99.99,,,0.00,Acu-Link.com,2013-09-03 20:46:00,
2013-09-03 16:01:00,83.3,67.4,29.89,SSE,157,9.4,-999.0,59,-99.99,,,0.00,Acu-Link.com,2013-09-03 21:01:00,
2013-09-03 16:16:00,82.8,67.5,29.89,SSE,157,7.3,-999.0,60,-99.99,,,0.00,Acu-Link.com,2013-09-03 21:16:00,
2013-09-03 16:31:00,82.0,67.2,29.88,South,180,9.9,-999.0,61,-99.99,,,0.00,Acu-Link.com,2013-09-03 21:31:00,
2013-09-03 16:46:00,81.5,67.7,29.89,SW,225,5.8,-999.0,63,-99.99,,,0.00,Acu-Link.com,2013-09-03 21:46:00,
2013-09-03 17:01:00,82.0,67.2,29.89,SSW,202,3.7,-999.0,61,-99.99,,,0.00,Acu-Link.com,2013-09-03 22:01:00,
2013-09-03 17:16:00,81.1,67.7,29.90,SSE,157,8.9,-999.0,64,-99.99,,,0.00,Acu-Link.com,2013-09-03 22:16:00,
2013-09-03 17:32:00,80.6,67.3,29.89,SSE,157,5.8,-999.0,64,-99.99,,,0.00,Acu-Link.com,2013-09-03 22:32:00,
2013-09-03 17:47:00,80.2,67.8,29.90,SSE,157,4.7,-999.0,66,-99.99,,,0.00,Acu-Link.com,2013-09-03 22:47:00,
2013-09-03 18:02:00,80.1,68.1,29.89,SE,135,4.2,-999.0,67,-99.99,,,0.00,Acu-Link.com,2013-09-03 23:02:00,
2013-09-03 18:18:00,79.0,67.5,29.89,South,180,6.3,-999.0,68,-99.99,,,0.00,Acu-Link.com,2013-09-03 23:18:00,
2013-09-03 18:33:00,78.8,67.7,29.89,SSE,157,4.7,-999.0,69,-99.99,,,0.00,Acu-Link.com,2013-09-03 23:33:00,
2013-09-03 18:48:00,78.1,67.9,29.89,South,180,6.8,-999.0,71,-99.99,,,0.00,Acu-Link.com,2013-09-03 23:48:00,
2013-09-03 19:03:00,77.2,67.1,29.88,South,180,5.3,-999.0,71,-99.99,,,0.00,Acu-Link.com,2013-09-04 00:03:00,
2013-09-03 19:19:00,76.8,67.1,29.88,SE,135,3.2,-999.0,72,-99.99,,,0.00,Acu-Link.com,2013-09-04 00:19:00,
2013-09-03 19:34:00,76.5,67.2,29.88,ESE,112,2.7,-999.0,73,-99.99,,,0.00,Acu-Link.com,2013-09-04 00:34:00,
2013-09-03 19:49:00,75.7,66.8,29.88,SSE,157,3.2,-999.0,74,-99.99,,,0.00,Acu-Link.com,2013-09-04 00:49:00,
2013-09-03 20:04:00,74.8,66.7,29.89,SSE,157,3.2,-999.0,76,-99.99,,,0.00,Acu-Link.com,2013-09-04 01:04:00,
2013-09-03 20:19:00,74.3,66.2,29.89,SE,135,3.2,-999.0,76,-99.99,,,0.00,Acu-Link.com,2013-09-04 01:19:00,
2013-09-03 20:34:00,73.9,66.2,29.90,ESE,112,3.2,-999.0,77,-99.99,,,0.00,Acu-Link.com,2013-09-04 01:34:00,
2013-09-03 20:49:00,73.6,66.3,29.90,ESE,112,3.7,-999.0,78,-99.99,,,0.00,Acu-Link.com,2013-09-04 01:49:00,
2013-09-03 21:05:00,73.2,65.9,29.89,SSE,157,2.7,-999.0,78,-99.99,,,0.00,Acu-Link.com,2013-09-04 02:05:00,
2013-09-03 21:20:00,72.3,65.4,29.90,ENE,67,2.2,-999.0,79,-99.99,,,0.00,Acu-Link.com,2013-09-04 02:20:00,
2013-09-03 21:35:00,71.8,65.3,29.91,ESE,112,4.2,-999.0,80,-99.99,,,0.00,Acu-Link.com,2013-09-04 02:35:00,
2013-09-03 21:51:00,71.1,65.0,29.91,SSE,157,1.7,-999.0,81,-99.99,,,0.00,Acu-Link.com,2013-09-04 02:51:00,
2013-09-03 22:06:00,70.9,65.1,29.91,SSE,157,3.7,-999.0,82,-99.99,,,0.00,Acu-Link.com,2013-09-04 03:06:00,
2013-09-03 22:21:00,70.9,65.1,29.92,SSE,157,4.2,-999.0,82,-99.99,,,0.00,Acu-Link.com,2013-09-04 03:21:00,
2013-09-03 22:37:00,70.2,64.8,29.91,SSE,157,3.7,-999.0,83,-99.99,,,0.00,Acu-Link.com,2013-09-04 03:37:00,
2013-09-03 22:52:00,69.8,64.4,29.91,ESE,112,2.7,-999.0,83,-99.99,,,0.00,Acu-Link.com,2013-09-04 03:52:00,
2013-09-03 23:07:00,69.3,64.3,29.91,SSE,157,3.2,-999.0,84,-99.99,,,0.00,Acu-Link.com,2013-09-04 04:07:00,
2013-09-03 23:23:00,69.3,64.3,29.91,East,90,1.7,-999.0,84,-99.99,,,0.00,Acu-Link.com,2013-09-04 04:23:00,
2013-09-03 23:38:00,69.3,64.3,29.91,SSE,157,2.7,-999.0,84,-99.99,,,0.00,Acu-Link.com,2013-09-04 04:38:00,
2013-09-03 23:53:00,69.3,64.3,29.91,SSE,157,1.7,-999.0,84,-99.99,,,0.00,Acu-Link.com,2013-09-04 04:53:00,